sensor_id;sensor_type;location;lat;lon;timestamp;P1;durP1;ratioP1;P2;durP2;ratioP2
4122;SDS011;2075;51.062;6.920;2023-04-24T00:01:24;1.20;;;1.20;;
4122;SDS011;2075;51.062;6.920;2023-04-24T00:04:09;1.30;;;1.30;;
4122;SDS011;2075;51.062;6.920;2023-04-24T00:06:57;1.10;;;1.10;;
4122;SDS011;2075;51.062;6.920;2023-04-24T00:09:44;1.27;;;1.27;;
4122;SDS011;2075;51.062;6.920;2023-04-24T00:12:30;1.40;;;1.40;;
4122;SDS011;2075;51.062;6.920;2023-04-24T00:15:17;1.50;;;1.40;;
4122;SDS011;2075;51.062;6.920;2023-04-24T00:18:02;5.03;;;2.80;;
4122;SDS011;2075;51.062;6.920;2023-04-24T00:20:47;1.37;;;1.30;;
4122;SDS011;2075;51.062;6.920;2023-04-24T00:23:33;1.40;;;1.30;;
4122;SDS011;2075;51.062;6.920;2023-04-24T00:26:18;1.50;;;1.50;;
4122;SDS011;2075;51.062;6.920;2023-04-24T00:29:04;1.20;;;1.20;;
4122;SDS011;2075;51.062;6.920;2023-04-24T00:31:51;1.50;;;1.40;;
4122;SDS011;2075;51.062;6.920;2023-04-24T00:34:36;1.13;;;1.13;;
4122;SDS011;2075;51.062;6.920;2023-04-24T00:37:22;1.53;;;1.43;;
4122;SDS011;2075;51.062;6.920;2023-04-24T00:40:07;1.17;;;1.17;;
4122;SDS011;2075;51.062;6.920;2023-04-24T00:42:54;1.57;;;1.47;;
4122;SDS011;2075;51.062;6.920;2023-04-24T00:45:39;1.27;;;1.23;;
4122;SDS011;2075;51.062;6.920;2023-04-24T00:48:26;1.40;;;1.40;;
4122;SDS011;2075;51.062;6.920;2023-04-24T00:51:12;2.53;;;1.37;;
4122;SDS011;2075;51.062;6.920;2023-04-24T00:53:58;1.50;;;1.50;;
4122;SDS011;2075;51.062;6.920;2023-04-24T00:56:44;1.43;;;1.43;;
4122;SDS011;2075;51.062;6.920;2023-04-24T00:59:30;1.73;;;1.30;;
4122;SDS011;2075;51.062;6.920;2023-04-24T01:02:16;3.63;;;1.23;;
4122;SDS011;2075;51.062;6.920;2023-04-24T01:05:03;1.67;;;1.63;;
4122;SDS011;2075;51.062;6.920;2023-04-24T01:07:48;2.53;;;1.50;;
4122;SDS011;2075;51.062;6.920;2023-04-24T01:10:34;1.53;;;1.43;;
4122;SDS011;2075;51.062;6.920;2023-04-24T01:13:21;1.47;;;1.37;;
4122;SDS011;2075;51.062;6.920;2023-04-24T01:16:06;1.70;;;1.60;;
4122;SDS011;2075;51.062;6.920;2023-04-24T01:18:52;1.73;;;1.50;;
4122;SDS011;2075;51.062;6.920;2023-04-24T01:21:39;3.23;;;1.87;;
4122;SDS011;2075;51.062;6.920;2023-04-24T01:24:27;2.60;;;1.70;;
4122;SDS011;2075;51.062;6.920;2023-04-24T01:27:14;1.50;;;1.50;;
4122;SDS011;2075;51.062;6.920;2023-04-24T01:30:00;2.43;;;2.23;;
4122;SDS011;2075;51.062;6.920;2023-04-24T01:32:47;2.27;;;2.17;;
4122;SDS011;2075;51.062;6.920;2023-04-24T01:35:33;3.20;;;2.90;;
4122;SDS011;2075;51.062;6.920;2023-04-24T01:38:19;4.40;;;3.00;;
4122;SDS011;2075;51.062;6.920;2023-04-24T01:41:06;5.57;;;3.40;;
4122;SDS011;2075;51.062;6.920;2023-04-24T01:43:52;4.53;;;3.87;;
4122;SDS011;2075;51.062;6.920;2023-04-24T01:46:38;4.30;;;3.90;;
4122;SDS011;2075;51.062;6.920;2023-04-24T01:49:24;5.33;;;4.30;;
4122;SDS011;2075;51.062;6.920;2023-04-24T01:52:09;4.17;;;3.77;;
4122;SDS011;2075;51.062;6.920;2023-04-24T01:54:54;4.53;;;4.10;;
4122;SDS011;2075;51.062;6.920;2023-04-24T01:57:42;4.53;;;4.13;;
4122;SDS011;2075;51.062;6.920;2023-04-24T02:00:27;5.03;;;4.53;;
4122;SDS011;2075;51.062;6.920;2023-04-24T02:03:13;5.63;;;4.80;;
4122;SDS011;2075;51.062;6.920;2023-04-24T02:05:58;5.20;;;4.63;;
4122;SDS011;2075;51.062;6.920;2023-04-24T02:08:43;7.53;;;4.60;;
4122;SDS011;2075;51.062;6.920;2023-04-24T02:11:29;8.57;;;4.27;;
4122;SDS011;2075;51.062;6.920;2023-04-24T02:14:16;10.03;;;5.47;;
4122;SDS011;2075;51.062;6.920;2023-04-24T02:17:01;12.17;;;5.17;;
4122;SDS011;2075;51.062;6.920;2023-04-24T02:19:47;11.60;;;5.50;;
4122;SDS011;2075;51.062;6.920;2023-04-24T02:22:34;9.57;;;6.13;;
4122;SDS011;2075;51.062;6.920;2023-04-24T02:25:20;10.93;;;7.13;;
4122;SDS011;2075;51.062;6.920;2023-04-24T02:28:05;12.93;;;5.83;;
4122;SDS011;2075;51.062;6.920;2023-04-24T02:30:53;11.50;;;6.20;;
4122;SDS011;2075;51.062;6.920;2023-04-24T02:33:40;9.67;;;6.20;;
4122;SDS011;2075;51.062;6.920;2023-04-24T02:36:25;11.70;;;5.83;;
4122;SDS011;2075;51.062;6.920;2023-04-24T02:39:11;14.80;;;5.60;;
4122;SDS011;2075;51.062;6.920;2023-04-24T02:41:57;8.30;;;5.93;;
4122;SDS011;2075;51.062;6.920;2023-04-24T02:44:43;6.27;;;5.53;;
4122;SDS011;2075;51.062;6.920;2023-04-24T02:47:30;9.63;;;6.60;;
4122;SDS011;2075;51.062;6.920;2023-04-24T02:50:16;7.10;;;6.00;;
4122;SDS011;2075;51.062;6.920;2023-04-24T02:53:01;9.17;;;6.40;;
4122;SDS011;2075;51.062;6.920;2023-04-24T02:55:46;9.90;;;6.47;;
4122;SDS011;2075;51.062;6.920;2023-04-24T02:58:32;12.63;;;5.90;;
4122;SDS011;2075;51.062;6.920;2023-04-24T03:01:17;9.93;;;6.63;;
4122;SDS011;2075;51.062;6.920;2023-04-24T03:04:04;11.73;;;6.33;;
4122;SDS011;2075;51.062;6.920;2023-04-24T03:06:50;6.53;;;5.77;;
4122;SDS011;2075;51.062;6.920;2023-04-24T03:09:38;9.37;;;6.27;;
4122;SDS011;2075;51.062;6.920;2023-04-24T03:12:23;12.43;;;6.80;;
4122;SDS011;2075;51.062;6.920;2023-04-24T03:15:09;8.23;;;6.60;;
4122;SDS011;2075;51.062;6.920;2023-04-24T03:17:54;9.87;;;5.93;;
4122;SDS011;2075;51.062;6.920;2023-04-24T03:20:42;14.70;;;6.60;;
4122;SDS011;2075;51.062;6.920;2023-04-24T03:23:27;11.67;;;6.97;;
4122;SDS011;2075;51.062;6.920;2023-04-24T03:26:12;11.10;;;7.00;;
4122;SDS011;2075;51.062;6.920;2023-04-24T03:29:08;11.60;;;7.23;;
4122;SDS011;2075;51.062;6.920;2023-04-24T03:31:55;10.40;;;7.53;;
4122;SDS011;2075;51.062;6.920;2023-04-24T03:34:41;11.37;;;7.17;;
4122;SDS011;2075;51.062;6.920;2023-04-24T03:37:30;9.10;;;6.63;;
4122;SDS011;2075;51.062;6.920;2023-04-24T03:40:30;13.20;;;7.20;;
4122;SDS011;2075;51.062;6.920;2023-04-24T03:43:17;12.30;;;7.10;;
4122;SDS011;2075;51.062;6.920;2023-04-24T03:46:03;11.00;;;8.73;;
4122;SDS011;2075;51.062;6.920;2023-04-24T03:48:52;12.20;;;7.00;;
4122;SDS011;2075;51.062;6.920;2023-04-24T03:51:41;12.07;;;7.70;;
4122;SDS011;2075;51.062;6.920;2023-04-24T03:54:41;14.13;;;7.63;;
4122;SDS011;2075;51.062;6.920;2023-04-24T03:57:27;12.63;;;7.43;;
4122;SDS011;2075;51.062;6.920;2023-04-24T04:00:26;13.00;;;8.13;;
4122;SDS011;2075;51.062;6.920;2023-04-24T04:03:32;8.97;;;6.80;;
4122;SDS011;2075;51.062;6.920;2023-04-24T04:06:17;13.63;;;8.60;;
4122;SDS011;2075;51.062;6.920;2023-04-24T04:09:06;13.53;;;7.10;;
4122;SDS011;2075;51.062;6.920;2023-04-24T04:11:55;10.30;;;7.40;;
4122;SDS011;2075;51.062;6.920;2023-04-24T04:14:40;12.40;;;7.27;;
4122;SDS011;2075;51.062;6.920;2023-04-24T04:17:26;11.80;;;7.50;;
4122;SDS011;2075;51.062;6.920;2023-04-24T04:20:13;11.50;;;7.80;;
4122;SDS011;2075;51.062;6.920;2023-04-24T04:22:59;17.80;;;7.60;;
4122;SDS011;2075;51.062;6.920;2023-04-24T04:25:57;10.70;;;7.13;;
4122;SDS011;2075;51.062;6.920;2023-04-24T04:28:55;9.33;;;6.40;;
4122;SDS011;2075;51.062;6.920;2023-04-24T04:31:41;9.57;;;6.33;;
4122;SDS011;2075;51.062;6.920;2023-04-24T04:34:31;8.47;;;6.90;;
4122;SDS011;2075;51.062;6.920;2023-04-24T04:37:18;13.87;;;7.47;;
4122;SDS011;2075;51.062;6.920;2023-04-24T04:40:26;8.90;;;6.77;;
4122;SDS011;2075;51.062;6.920;2023-04-24T04:43:19;12.67;;;6.57;;
4122;SDS011;2075;51.062;6.920;2023-04-24T04:46:10;10.93;;;6.67;;
4122;SDS011;2075;51.062;6.920;2023-04-24T04:49:06;8.90;;;6.67;;
4122;SDS011;2075;51.062;6.920;2023-04-24T04:51:53;10.30;;;6.30;;
4122;SDS011;2075;51.062;6.920;2023-04-24T04:54:40;10.20;;;6.70;;
4122;SDS011;2075;51.062;6.920;2023-04-24T04:57:27;9.03;;;5.63;;
4122;SDS011;2075;51.062;6.920;2023-04-24T05:00:13;13.60;;;6.60;;
4122;SDS011;2075;51.062;6.920;2023-04-24T05:03:07;6.43;;;5.83;;
4122;SDS011;2075;51.062;6.920;2023-04-24T05:05:53;8.27;;;5.70;;
4122;SDS011;2075;51.062;6.920;2023-04-24T05:08:39;6.83;;;5.67;;
4122;SDS011;2075;51.062;6.920;2023-04-24T05:11:29;5.80;;;5.07;;
4122;SDS011;2075;51.062;6.920;2023-04-24T05:14:16;8.53;;;5.80;;
4122;SDS011;2075;51.062;6.920;2023-04-24T05:17:10;7.40;;;5.27;;
4122;SDS011;2075;51.062;6.920;2023-04-24T05:20:11;7.63;;;5.30;;
4122;SDS011;2075;51.062;6.920;2023-04-24T05:25:39;5.83;;;5.20;;
4122;SDS011;2075;51.062;6.920;2023-04-24T05:28:29;8.27;;;6.20;;
4122;SDS011;2075;51.062;6.920;2023-04-24T05:31:22;11.10;;;6.40;;
4122;SDS011;2075;51.062;6.920;2023-04-24T05:34:12;8.57;;;6.30;;
4122;SDS011;2075;51.062;6.920;2023-04-24T05:37:02;7.90;;;6.27;;
4122;SDS011;2075;51.062;6.920;2023-04-24T05:39:52;8.63;;;5.97;;
4122;SDS011;2075;51.062;6.920;2023-04-24T05:42:37;9.50;;;7.30;;
4122;SDS011;2075;51.062;6.920;2023-04-24T05:45:22;17.93;;;8.00;;
4122;SDS011;2075;51.062;6.920;2023-04-24T05:48:08;9.90;;;6.83;;
4122;SDS011;2075;51.062;6.920;2023-04-24T05:50:54;8.40;;;6.20;;
4122;SDS011;2075;51.062;6.920;2023-04-24T05:53:42;6.77;;;5.50;;
4122;SDS011;2075;51.062;6.920;2023-04-24T05:56:28;8.27;;;6.80;;
4122;SDS011;2075;51.062;6.920;2023-04-24T05:59:15;10.13;;;5.83;;
4122;SDS011;2075;51.062;6.920;2023-04-24T06:02:00;7.77;;;5.53;;
4122;SDS011;2075;51.062;6.920;2023-04-24T06:04:46;9.90;;;5.80;;
4122;SDS011;2075;51.062;6.920;2023-04-24T06:07:31;10.00;;;6.20;;
4122;SDS011;2075;51.062;6.920;2023-04-24T06:10:21;10.77;;;5.60;;
4122;SDS011;2075;51.062;6.920;2023-04-24T06:13:07;8.03;;;4.93;;
4122;SDS011;2075;51.062;6.920;2023-04-24T06:15:56;6.93;;;4.10;;
4122;SDS011;2075;51.062;6.920;2023-04-24T06:18:50;4.43;;;3.90;;
4122;SDS011;2075;51.062;6.920;2023-04-24T06:21:37;5.23;;;3.50;;
4122;SDS011;2075;51.062;6.920;2023-04-24T06:24:26;4.83;;;3.60;;
4122;SDS011;2075;51.062;6.920;2023-04-24T06:27:13;3.67;;;3.37;;
4122;SDS011;2075;51.062;6.920;2023-04-24T06:29:58;6.40;;;3.63;;
4122;SDS011;2075;51.062;6.920;2023-04-24T06:32:44;4.17;;;3.30;;
4122;SDS011;2075;51.062;6.920;2023-04-24T06:35:30;3.30;;;3.10;;
4122;SDS011;2075;51.062;6.920;2023-04-24T06:38:15;4.57;;;3.30;;
4122;SDS011;2075;51.062;6.920;2023-04-24T06:41:01;3.80;;;3.23;;
4122;SDS011;2075;51.062;6.920;2023-04-24T06:43:48;3.00;;;2.80;;
4122;SDS011;2075;51.062;6.920;2023-04-24T06:46:33;3.43;;;3.13;;
4122;SDS011;2075;51.062;6.920;2023-04-24T06:49:19;6.90;;;3.53;;
4122;SDS011;2075;51.062;6.920;2023-04-24T06:52:05;3.23;;;3.03;;
4122;SDS011;2075;51.062;6.920;2023-04-24T06:54:51;3.80;;;3.50;;
4122;SDS011;2075;51.062;6.920;2023-04-24T06:57:37;2.90;;;2.70;;
4122;SDS011;2075;51.062;6.920;2023-04-24T07:00:24;12.97;;;3.30;;
4122;SDS011;2075;51.062;6.920;2023-04-24T07:03:10;4.60;;;3.07;;
4122;SDS011;2075;51.062;6.920;2023-04-24T07:05:55;3.37;;;3.07;;
4122;SDS011;2075;51.062;6.920;2023-04-24T07:08:41;2.90;;;2.70;;
4122;SDS011;2075;51.062;6.920;2023-04-24T07:11:27;4.40;;;3.30;;
4122;SDS011;2075;51.062;6.920;2023-04-24T07:14:13;3.07;;;2.30;;
4122;SDS011;2075;51.062;6.920;2023-04-24T07:17:00;3.97;;;2.10;;
4122;SDS011;2075;51.062;6.920;2023-04-24T07:19:47;2.47;;;2.30;;
4122;SDS011;2075;51.062;6.920;2023-04-24T07:22:33;2.40;;;2.23;;
4122;SDS011;2075;51.062;6.920;2023-04-24T07:25:19;3.80;;;2.67;;
4122;SDS011;2075;51.062;6.920;2023-04-24T07:28:04;3.87;;;2.77;;
4122;SDS011;2075;51.062;6.920;2023-04-24T07:30:50;5.27;;;4.33;;
4122;SDS011;2075;51.062;6.920;2023-04-24T07:33:39;3.13;;;2.93;;
4122;SDS011;2075;51.062;6.920;2023-04-24T07:36:25;4.07;;;2.93;;
4122;SDS011;2075;51.062;6.920;2023-04-24T07:39:11;2.80;;;2.60;;
4122;SDS011;2075;51.062;6.920;2023-04-24T07:41:57;2.73;;;2.00;;
4122;SDS011;2075;51.062;6.920;2023-04-24T07:44:43;6.30;;;2.50;;
4122;SDS011;2075;51.062;6.920;2023-04-24T07:47:30;2.90;;;2.70;;
4122;SDS011;2075;51.062;6.920;2023-04-24T07:50:17;3.60;;;2.97;;
4122;SDS011;2075;51.062;6.920;2023-04-24T07:53:03;4.77;;;2.93;;
4122;SDS011;2075;51.062;6.920;2023-04-24T07:58:31;4.03;;;3.20;;
4122;SDS011;2075;51.062;6.920;2023-04-24T08:01:17;2.63;;;2.43;;
4122;SDS011;2075;51.062;6.920;2023-04-24T08:04:03;2.57;;;1.73;;
4122;SDS011;2075;51.062;6.920;2023-04-24T08:06:50;2.10;;;1.90;;
4122;SDS011;2075;51.062;6.920;2023-04-24T08:09:35;4.77;;;2.20;;
4122;SDS011;2075;51.062;6.920;2023-04-24T08:12:21;1.67;;;1.53;;
4122;SDS011;2075;51.062;6.920;2023-04-24T08:15:07;1.67;;;1.57;;
4122;SDS011;2075;51.062;6.920;2023-04-24T08:17:53;1.80;;;1.70;;
4122;SDS011;2075;51.062;6.920;2023-04-24T08:20:39;3.10;;;2.40;;
4122;SDS011;2075;51.062;6.920;2023-04-24T08:23:26;5.27;;;2.77;;
4122;SDS011;2075;51.062;6.920;2023-04-24T08:26:13;2.60;;;2.50;;
4122;SDS011;2075;51.062;6.920;2023-04-24T08:28:58;2.57;;;2.37;;
4122;SDS011;2075;51.062;6.920;2023-04-24T08:31:44;3.60;;;2.70;;
4122;SDS011;2075;51.062;6.920;2023-04-24T08:34:30;3.17;;;2.90;;
4122;SDS011;2075;51.062;6.920;2023-04-24T08:37:15;3.87;;;2.30;;
4122;SDS011;2075;51.062;6.920;2023-04-24T08:40:02;4.57;;;2.90;;
4122;SDS011;2075;51.062;6.920;2023-04-24T08:42:51;2.70;;;2.50;;
4122;SDS011;2075;51.062;6.920;2023-04-24T08:45:39;3.67;;;3.38;;
4122;SDS011;2075;51.062;6.920;2023-04-24T08:48:25;3.33;;;3.03;;
4122;SDS011;2075;51.062;6.920;2023-04-24T08:51:11;3.20;;;2.90;;
4122;SDS011;2075;51.062;6.920;2023-04-24T08:53:56;5.23;;;2.87;;
4122;SDS011;2075;51.062;6.920;2023-04-24T08:56:44;4.77;;;3.07;;
4122;SDS011;2075;51.062;6.920;2023-04-24T08:59:32;7.40;;;3.60;;
4122;SDS011;2075;51.062;6.920;2023-04-24T09:02:19;3.80;;;3.40;;
4122;SDS011;2075;51.062;6.920;2023-04-24T09:05:06;5.37;;;3.57;;
4122;SDS011;2075;51.062;6.920;2023-04-24T09:07:53;8.13;;;3.80;;
4122;SDS011;2075;51.062;6.920;2023-04-24T09:10:40;5.73;;;4.00;;
4122;SDS011;2075;51.062;6.920;2023-04-24T09:13:27;4.13;;;3.50;;
4122;SDS011;2075;51.062;6.920;2023-04-24T09:16:13;4.77;;;3.80;;
4122;SDS011;2075;51.062;6.920;2023-04-24T09:18:59;5.00;;;3.77;;
4122;SDS011;2075;51.062;6.920;2023-04-24T09:21:45;8.20;;;4.40;;
4122;SDS011;2075;51.062;6.920;2023-04-24T09:24:31;4.50;;;3.83;;
4122;SDS011;2075;51.062;6.920;2023-04-24T09:27:17;4.80;;;4.00;;
4122;SDS011;2075;51.062;6.920;2023-04-24T09:30:05;8.27;;;5.45;;
4122;SDS011;2075;51.062;6.920;2023-04-24T09:32:58;6.63;;;4.67;;
4122;SDS011;2075;51.062;6.920;2023-04-24T09:35:55;4.23;;;3.57;;
4122;SDS011;2075;51.062;6.920;2023-04-24T09:38:40;5.37;;;4.57;;
4122;SDS011;2075;51.062;6.920;2023-04-24T09:41:26;7.30;;;4.80;;
4122;SDS011;2075;51.062;6.920;2023-04-24T09:44:13;9.57;;;5.23;;
4122;SDS011;2075;51.062;6.920;2023-04-24T09:47:01;6.47;;;5.10;;
4122;SDS011;2075;51.062;6.920;2023-04-24T09:49:47;7.27;;;5.20;;
4122;SDS011;2075;51.062;6.920;2023-04-24T09:52:32;9.60;;;5.87;;
4122;SDS011;2075;51.062;6.920;2023-04-24T09:55:19;6.33;;;4.87;;
4122;SDS011;2075;51.062;6.920;2023-04-24T09:58:05;9.27;;;5.43;;
4122;SDS011;2075;51.062;6.920;2023-04-24T10:00:53;6.57;;;5.23;;
4122;SDS011;2075;51.062;6.920;2023-04-24T10:03:41;8.37;;;6.10;;
4122;SDS011;2075;51.062;6.920;2023-04-24T10:06:33;8.53;;;5.70;;
4122;SDS011;2075;51.062;6.920;2023-04-24T10:09:20;9.00;;;5.67;;
4122;SDS011;2075;51.062;6.920;2023-04-24T10:12:06;9.63;;;5.97;;
4122;SDS011;2075;51.062;6.920;2023-04-24T10:14:52;13.70;;;5.43;;
4122;SDS011;2075;51.062;6.920;2023-04-24T10:17:39;7.50;;;5.40;;
4122;SDS011;2075;51.062;6.920;2023-04-24T10:20:27;9.63;;;5.50;;
4122;SDS011;2075;51.062;6.920;2023-04-24T10:23:14;13.67;;;6.23;;
4122;SDS011;2075;51.062;6.920;2023-04-24T10:26:03;7.07;;;4.77;;
4122;SDS011;2075;51.062;6.920;2023-04-24T10:28:48;6.50;;;4.77;;
4122;SDS011;2075;51.062;6.920;2023-04-24T10:31:34;12.23;;;5.60;;
4122;SDS011;2075;51.062;6.920;2023-04-24T10:34:19;8.70;;;5.00;;
4122;SDS011;2075;51.062;6.920;2023-04-24T10:37:08;14.03;;;6.50;;
4122;SDS011;2075;51.062;6.920;2023-04-24T10:39:53;9.55;;;5.10;;
4122;SDS011;2075;51.062;6.920;2023-04-24T10:42:41;9.83;;;5.20;;
4122;SDS011;2075;51.062;6.920;2023-04-24T10:48:05;10.15;;;4.90;;
4122;SDS011;2075;51.062;6.920;2023-04-24T10:50:56;8.37;;;5.00;;
4122;SDS011;2075;51.062;6.920;2023-04-24T10:53:54;11.47;;;4.37;;
4122;SDS011;2075;51.062;6.920;2023-04-24T10:59:34;7.60;;;3.77;;
4122;SDS011;2075;51.062;6.920;2023-04-24T11:02:35;9.20;;;5.10;;
4122;SDS011;2075;51.062;6.920;2023-04-24T11:05:51;11.50;;;4.10;;
4122;SDS011;2075;51.062;6.920;2023-04-24T11:08:42;14.93;;;4.17;;
4122;SDS011;2075;51.062;6.920;2023-04-24T11:11:30;7.60;;;4.53;;
4122;SDS011;2075;51.062;6.920;2023-04-24T11:14:15;12.18;;;4.97;;
4122;SDS011;2075;51.062;6.920;2023-04-24T11:17:02;8.43;;;4.30;;
4122;SDS011;2075;51.062;6.920;2023-04-24T11:19:49;6.33;;;3.80;;
4122;SDS011;2075;51.062;6.920;2023-04-24T11:22:36;10.33;;;4.00;;
4122;SDS011;2075;51.062;6.920;2023-04-24T11:25:24;7.90;;;4.77;;
4122;SDS011;2075;51.062;6.920;2023-04-24T11:28:14;9.83;;;3.67;;
4122;SDS011;2075;51.062;6.920;2023-04-24T11:31:10;6.33;;;3.80;;
4122;SDS011;2075;51.062;6.920;2023-04-24T11:34:21;9.30;;;4.40;;
4122;SDS011;2075;51.062;6.920;2023-04-24T11:37:06;10.33;;;4.90;;
4122;SDS011;2075;51.062;6.920;2023-04-24T11:39:53;10.00;;;4.27;;
4122;SDS011;2075;51.062;6.920;2023-04-24T11:42:39;9.10;;;4.67;;
4122;SDS011;2075;51.062;6.920;2023-04-24T11:45:27;12.73;;;5.40;;
4122;SDS011;2075;51.062;6.920;2023-04-24T11:48:19;6.33;;;4.50;;
4122;SDS011;2075;51.062;6.920;2023-04-24T11:51:05;10.33;;;5.60;;
4122;SDS011;2075;51.062;6.920;2023-04-24T11:53:50;12.80;;;6.60;;
4122;SDS011;2075;51.062;6.920;2023-04-24T11:56:36;10.13;;;4.20;;
4122;SDS011;2075;51.062;6.920;2023-04-24T11:59:21;8.37;;;4.63;;
4122;SDS011;2075;51.062;6.920;2023-04-24T12:02:07;11.07;;;4.37;;
4122;SDS011;2075;51.062;6.920;2023-04-24T12:04:54;8.43;;;4.70;;
4122;SDS011;2075;51.062;6.920;2023-04-24T12:07:40;9.20;;;4.23;;
4122;SDS011;2075;51.062;6.920;2023-04-24T12:10:27;15.70;;;4.63;;
4122;SDS011;2075;51.062;6.920;2023-04-24T12:13:15;11.10;;;4.47;;
4122;SDS011;2075;51.062;6.920;2023-04-24T12:16:01;12.63;;;4.30;;
4122;SDS011;2075;51.062;6.920;2023-04-24T12:18:48;10.63;;;4.60;;
4122;SDS011;2075;51.062;6.920;2023-04-24T12:21:38;5.90;;;3.40;;
4122;SDS011;2075;51.062;6.920;2023-04-24T12:24:23;11.48;;;4.20;;
4122;SDS011;2075;51.062;6.920;2023-04-24T12:27:18;8.70;;;3.80;;
4122;SDS011;2075;51.062;6.920;2023-04-24T12:30:04;9.70;;;3.90;;
4122;SDS011;2075;51.062;6.920;2023-04-24T12:32:56;9.50;;;3.27;;
4122;SDS011;2075;51.062;6.920;2023-04-24T12:35:47;6.50;;;3.70;;
4122;SDS011;2075;51.062;6.920;2023-04-24T12:38:35;7.90;;;4.37;;
4122;SDS011;2075;51.062;6.920;2023-04-24T12:41:25;7.67;;;3.93;;
4122;SDS011;2075;51.062;6.920;2023-04-24T12:44:10;9.87;;;4.00;;
4122;SDS011;2075;51.062;6.920;2023-04-24T12:46:57;6.73;;;3.20;;
4122;SDS011;2075;51.062;6.920;2023-04-24T12:49:43;11.23;;;3.40;;
4122;SDS011;2075;51.062;6.920;2023-04-24T12:52:29;4.67;;;3.00;;
4122;SDS011;2075;51.062;6.920;2023-04-24T12:55:16;5.07;;;3.10;;
4122;SDS011;2075;51.062;6.920;2023-04-24T12:58:02;6.10;;;3.33;;
4122;SDS011;2075;51.062;6.920;2023-04-24T13:00:47;9.27;;;3.60;;
4122;SDS011;2075;51.062;6.920;2023-04-24T13:03:33;5.20;;;3.07;;
4122;SDS011;2075;51.062;6.920;2023-04-24T13:06:18;13.20;;;3.50;;
4122;SDS011;2075;51.062;6.920;2023-04-24T13:09:04;5.97;;;3.53;;
4122;SDS011;2075;51.062;6.920;2023-04-24T13:11:51;5.47;;;3.43;;
4122;SDS011;2075;51.062;6.920;2023-04-24T13:14:37;5.70;;;3.77;;
4122;SDS011;2075;51.062;6.920;2023-04-24T13:17:22;4.97;;;3.97;;
4122;SDS011;2075;51.062;6.920;2023-04-24T13:20:08;5.93;;;3.90;;
4122;SDS011;2075;51.062;6.920;2023-04-24T13:22:53;7.67;;;4.43;;
4122;SDS011;2075;51.062;6.920;2023-04-24T13:25:39;10.03;;;4.20;;
4122;SDS011;2075;51.062;6.920;2023-04-24T13:28:27;4.57;;;4.03;;
4122;SDS011;2075;51.062;6.920;2023-04-24T13:31:13;6.40;;;3.53;;
4122;SDS011;2075;51.062;6.920;2023-04-24T13:33:58;5.40;;;3.57;;
4122;SDS011;2075;51.062;6.920;2023-04-24T13:36:44;7.20;;;3.33;;
4122;SDS011;2075;51.062;6.920;2023-04-24T13:39:29;11.37;;;3.90;;
4122;SDS011;2075;51.062;6.920;2023-04-24T13:42:15;4.50;;;3.90;;
4122;SDS011;2075;51.062;6.920;2023-04-24T13:45:02;7.17;;;3.83;;
4122;SDS011;2075;51.062;6.920;2023-04-24T13:47:49;4.50;;;3.93;;
4122;SDS011;2075;51.062;6.920;2023-04-24T13:50:34;4.87;;;3.40;;
4122;SDS011;2075;51.062;6.920;2023-04-24T13:53:20;4.10;;;3.07;;
4122;SDS011;2075;51.062;6.920;2023-04-24T13:56:05;10.33;;;4.13;;
4122;SDS011;2075;51.062;6.920;2023-04-24T13:58:52;8.67;;;3.70;;
4122;SDS011;2075;51.062;6.920;2023-04-24T14:01:39;8.10;;;3.73;;
4122;SDS011;2075;51.062;6.920;2023-04-24T14:04:25;6.90;;;4.00;;
4122;SDS011;2075;51.062;6.920;2023-04-24T14:07:11;4.93;;;3.90;;
4122;SDS011;2075;51.062;6.920;2023-04-24T14:09:56;6.70;;;3.80;;
4122;SDS011;2075;51.062;6.920;2023-04-24T14:12:41;8.53;;;3.67;;
4122;SDS011;2075;51.062;6.920;2023-04-24T14:15:27;7.77;;;3.53;;
4122;SDS011;2075;51.062;6.920;2023-04-24T14:18:15;4.80;;;3.70;;
4122;SDS011;2075;51.062;6.920;2023-04-24T14:21:00;8.50;;;4.30;;
4122;SDS011;2075;51.062;6.920;2023-04-24T14:23:47;7.68;;;3.83;;
4122;SDS011;2075;51.062;6.920;2023-04-24T14:26:32;13.60;;;4.10;;
4122;SDS011;2075;51.062;6.920;2023-04-24T14:29:18;7.13;;;4.07;;
4122;SDS011;2075;51.062;6.920;2023-04-24T14:32:04;6.97;;;3.90;;
4122;SDS011;2075;51.062;6.920;2023-04-24T14:34:51;6.63;;;4.00;;
4122;SDS011;2075;51.062;6.920;2023-04-24T14:37:36;10.93;;;3.53;;
4122;SDS011;2075;51.062;6.920;2023-04-24T14:40:24;3.77;;;2.77;;
4122;SDS011;2075;51.062;6.920;2023-04-24T14:43:10;9.27;;;3.33;;
4122;SDS011;2075;51.062;6.920;2023-04-24T14:45:55;5.93;;;3.60;;
4122;SDS011;2075;51.062;6.920;2023-04-24T14:48:41;8.53;;;3.47;;
4122;SDS011;2075;51.062;6.920;2023-04-24T14:51:28;3.90;;;3.10;;
4122;SDS011;2075;51.062;6.920;2023-04-24T14:54:14;3.47;;;2.90;;
4122;SDS011;2075;51.062;6.920;2023-04-24T14:56:59;3.60;;;3.30;;
4122;SDS011;2075;51.062;6.920;2023-04-24T14:59:45;3.23;;;2.93;;
4122;SDS011;2075;51.062;6.920;2023-04-24T15:02:30;3.60;;;3.20;;
4122;SDS011;2075;51.062;6.920;2023-04-24T15:05:16;5.97;;;3.30;;
4122;SDS011;2075;51.062;6.920;2023-04-24T15:08:03;4.97;;;3.67;;
4122;SDS011;2075;51.062;6.920;2023-04-24T15:10:48;9.03;;;3.30;;
4122;SDS011;2075;51.062;6.920;2023-04-24T15:13:34;6.70;;;3.27;;
4122;SDS011;2075;51.062;6.920;2023-04-24T15:16:20;4.50;;;3.30;;
4122;SDS011;2075;51.062;6.920;2023-04-24T15:19:05;3.50;;;3.20;;
4122;SDS011;2075;51.062;6.920;2023-04-24T15:21:51;5.07;;;3.10;;
4122;SDS011;2075;51.062;6.920;2023-04-24T15:24:38;5.80;;;3.10;;
4122;SDS011;2075;51.062;6.920;2023-04-24T15:27:23;5.57;;;3.30;;
4122;SDS011;2075;51.062;6.920;2023-04-24T15:30:09;3.77;;;3.40;;
4122;SDS011;2075;51.062;6.920;2023-04-24T15:32:55;7.10;;;3.60;;
4122;SDS011;2075;51.062;6.920;2023-04-24T15:35:41;8.57;;;5.87;;
4122;SDS011;2075;51.062;6.920;2023-04-24T15:38:27;8.07;;;3.23;;
4122;SDS011;2075;51.062;6.920;2023-04-24T15:41:13;3.50;;;3.20;;
4122;SDS011;2075;51.062;6.920;2023-04-24T15:43:59;3.50;;;3.20;;
4122;SDS011;2075;51.062;6.920;2023-04-24T15:46:45;3.67;;;3.33;;
4122;SDS011;2075;51.062;6.920;2023-04-24T15:49:30;5.20;;;4.40;;
4122;SDS011;2075;51.062;6.920;2023-04-24T15:52:16;4.53;;;3.17;;
4122;SDS011;2075;51.062;6.920;2023-04-24T15:55:02;3.70;;;3.23;;
4122;SDS011;2075;51.062;6.920;2023-04-24T15:57:50;7.20;;;4.17;;
4122;SDS011;2075;51.062;6.920;2023-04-24T16:00:35;4.47;;;4.07;;
4122;SDS011;2075;51.062;6.920;2023-04-24T16:03:21;4.83;;;3.60;;
4122;SDS011;2075;51.062;6.920;2023-04-24T16:06:06;5.20;;;3.73;;
4122;SDS011;2075;51.062;6.920;2023-04-24T16:08:52;4.53;;;3.50;;
4122;SDS011;2075;51.062;6.920;2023-04-24T16:11:37;5.00;;;4.10;;
4122;SDS011;2075;51.062;6.920;2023-04-24T16:14:24;3.97;;;3.63;;
4122;SDS011;2075;51.062;6.920;2023-04-24T16:17:11;4.33;;;3.90;;
4122;SDS011;2075;51.062;6.920;2023-04-24T16:19:57;4.97;;;3.30;;
4122;SDS011;2075;51.062;6.920;2023-04-24T16:22:42;5.13;;;3.70;;
4122;SDS011;2075;51.062;6.920;2023-04-24T16:25:28;4.70;;;3.20;;
4122;SDS011;2075;51.062;6.920;2023-04-24T16:28:13;3.30;;;3.00;;
4122;SDS011;2075;51.062;6.920;2023-04-24T16:31:00;3.80;;;2.57;;
4122;SDS011;2075;51.062;6.920;2023-04-24T16:33:46;2.87;;;2.67;;
4122;SDS011;2075;51.062;6.920;2023-04-24T16:36:31;6.60;;;3.10;;
4122;SDS011;2075;51.062;6.920;2023-04-24T16:39:17;5.28;;;3.40;;
4122;SDS011;2075;51.062;6.920;2023-04-24T16:42:02;3.13;;;2.37;;
4122;SDS011;2075;51.062;6.920;2023-04-24T16:44:48;3.97;;;2.70;;
4122;SDS011;2075;51.062;6.920;2023-04-24T16:47:35;4.60;;;2.67;;
4122;SDS011;2075;51.062;6.920;2023-04-24T16:50:21;3.90;;;2.83;;
4122;SDS011;2075;51.062;6.920;2023-04-24T16:53:06;6.00;;;2.70;;
4122;SDS011;2075;51.062;6.920;2023-04-24T16:55:52;2.43;;;2.10;;
4122;SDS011;2075;51.062;6.920;2023-04-24T16:58:37;3.77;;;2.40;;
4122;SDS011;2075;51.062;6.920;2023-04-24T17:01:23;3.73;;;3.40;;
4122;SDS011;2075;51.062;6.920;2023-04-24T17:04:09;6.37;;;2.83;;
4122;SDS011;2075;51.062;6.920;2023-04-24T17:06:55;3.60;;;3.00;;
4122;SDS011;2075;51.062;6.920;2023-04-24T17:09:40;3.40;;;2.60;;
4122;SDS011;2075;51.062;6.920;2023-04-24T17:12:26;16.47;;;2.73;;
4122;SDS011;2075;51.062;6.920;2023-04-24T17:15:11;2.60;;;2.40;;
4122;SDS011;2075;51.062;6.920;2023-04-24T17:17:57;2.60;;;2.40;;
4122;SDS011;2075;51.062;6.920;2023-04-24T17:20:44;3.70;;;2.77;;
4122;SDS011;2075;51.062;6.920;2023-04-24T17:23:29;4.00;;;2.70;;
4122;SDS011;2075;51.062;6.920;2023-04-24T17:26:15;2.97;;;2.77;;